Time,TemperatureF,DewpointF,PressureIn,WindDirection,WindDirectionDegrees,WindSpeedMPH,WindSpeedGustMPH,Humidity,HourlyPrecipIn,Conditions,Clouds,dailyrainin,SoftwareType,DateUTC
2013-06-03 00:05:00,41.6,38.0,30.07,SE,136,0.0,-999.0,86,-99.99,,,0.00,weatherlink.com 1.10,2013-06-03 07:05:00,
2013-06-03 00:20:00,41.4,38.0,30.07,SSW,198,5.0,-999.0,86,-99.99,,,0.00,weatherlink.com 1.10,2013-06-03 07:20:00,
2013-06-03 00:35:00,40.9,37.0,30.08,SSE,159,1.0,-999.0,85,-99.99,,,0.00,weatherlink.com 1.10,2013-06-03 07:35:00,
2013-06-03 00:50:00,40.4,38.0,30.07,SSE,163,1.0,-999.0,90,-99.99,,,0.00,weatherlink.com 1.10,2013-06-03 07:50:00,
2013-06-03 01:05:00,39.3,36.0,30.07,South,169,0.0,-999.0,89,-99.99,,,0.00,weatherlink.com 1.10,2013-06-03 08:05:00,
2013-06-03 01:20:00,39.1,37.0,30.07,SE,139,1.0,-999.0,90,-99.99,,,0.00,weatherlink.com 1.10,2013-06-03 08:20:00,
2013-06-03 01:35:00,38.7,36.0,30.07,SE,135,0.0,-999.0,91,-99.99,,,0.00,weatherlink.com 1.10,2013-06-03 08:35:00,
2013-06-03 01:50:00,38.0,36.0,30.07,ESE,122,1.0,-999.0,91,-99.99,,,0.00,weatherlink.com 1.10,2013-06-03 08:50:00,
2013-06-03 02:05:00,38.1,36.0,30.07,ESE,114,0.0,-999.0,91,-99.99,,,0.00,weatherlink.com 1.10,2013-06-03 09:05:00,
2013-06-03 02:20:00,37.5,35.0,30.07,SSE,150,3.0,-999.0,91,-99.99,,,0.00,weatherlink.com 1.10,2013-06-03 09:20:00,
2013-06-03 02:35:00,37.2,35.0,30.07,ESE,119,2.0,-999.0,91,-99.99,,,0.00,weatherlink.com 1.10,2013-06-03 09:35:00,
2013-06-03 02:50:00,37.1,35.0,30.07,SE,143,1.0,-999.0,92,-99.99,,,0.00,weatherlink.com 1.10,2013-06-03 09:50:00,
2013-06-03 03:05:00,36.5,35.0,30.07,SE,126,2.0,-999.0,93,-99.99,,,0.00,weatherlink.com 1.10,2013-06-03 10:05:00,
2013-06-03 03:20:00,36.1,34.0,30.07,SE,135,0.0,-999.0,92,-99.99,,,0.00,weatherlink.com 1.10,2013-06-03 10:20:00,
2013-06-03 03:35:00,35.7,34.0,30.07,SE,128,1.0,-999.0,93,-99.99,,,0.00,weatherlink.com 1.10,2013-06-03 10:35:00,
2013-06-03 03:50:00,36.0,34.0,30.07,ESE,109,2.0,-999.0,93,-99.99,,,0.00,weatherlink.com 1.10,2013-06-03 10:50:00,
2013-06-03 04:05:00,35.2,33.0,30.07,ESE,118,2.0,-999.0,93,-99.99,,,0.00,weatherlink.com 1.10,2013-06-03 11:05:00,
2013-06-03 04:20:00,35.4,34.0,30.07,ESE,110,1.0,-999.0,94,-99.99,,,0.00,weatherlink.com 1.10,2013-06-03 11:20:00,
2013-06-03 04:35:00,35.2,33.0,30.07,ESE,121,2.0,-999.0,93,-99.99,,,0.00,weatherlink.com 1.10,2013-06-03 11:35:00,
2013-06-03 04:50:00,35.9,34.0,30.07,SE,136,1.0,-999.0,94,-99.99,,,0.00,weatherlink.com 1.10,2013-06-03 11:50:00,
2013-06-03 05:05:00,35.2,33.0,30.07,ESE,108,3.0,-999.0,93,-99.99,,,0.00,weatherlink.com 1.10,2013-06-03 12:05:00,
2013-06-03 05:20:00,35.5,34.0,30.07,ESE,103,0.0,-999.0,93,-99.99,,,0.00,weatherlink.com 1.10,2013-06-03 12:20:00,
2013-06-03 05:35:00,34.7,33.0,30.07,ESE,108,3.0,-999.0,94,-99.99,,,0.00,weatherlink.com 1.10,2013-06-03 12:35:00,
2013-06-03 05:50:00,36.3,35.0,30.07,ESE,107,0.0,-999.0,94,-99.99,,,0.00,weatherlink.com 1.10,2013-06-03 12:50:00,
2013-06-03 06:05:00,37.5,35.0,30.07,ESE,104,1.0,-999.0,90,-99.99,,,0.00,weatherlink.com 1.10,2013-06-03 13:05:00,
2013-06-03 06:20:00,39.1,37.0,30.07,East,93,0.0,-999.0,91,-99.99,,,0.00,weatherlink.com 1.10,2013-06-03 13:20:00,
2013-06-03 06:35:00,41.2,38.0,30.07,ENE,77,0.0,-999.0,89,-99.99,,,0.00,weatherlink.com 1.10,2013-06-03 13:35:00,
2013-06-03 06:50:00,43.5,40.0,30.08,East,98,1.0,-999.0,88,-99.99,,,0.00,weatherlink.com 1.10,2013-06-03 13:50:00,
2013-06-03 07:05:00,46.3,42.0,30.08,ENE,63,0.0,-999.0,84,-99.99,,,0.00,weatherlink.com 1.10,2013-06-03 14:05:00,
2013-06-03 07:20:00,48.7,43.0,30.08,East,91,0.0,-999.0,80,-99.99,,,0.00,weatherlink.com 1.10,2013-06-03 14:20:00,
2013-06-03 07:35:00,50.8,42.0,30.08,NE,47,2.0,-999.0,72,-99.99,,,0.00,weatherlink.com 1.10,2013-06-03 14:35:00,
2013-06-03 07:50:00,52.1,42.0,30.09,SE,143,2.0,-999.0,69,-99.99,,,0.00,weatherlink.com 1.10,2013-06-03 14:50:00,
2013-06-03 08:05:00,53.6,42.0,30.09,SSE,149,0.0,-999.0,66,-99.99,,,0.00,weatherlink.com 1.10,2013-06-03 15:05:00,
2013-06-03 08:20:00,54.6,42.0,30.09,SW,236,2.0,-999.0,63,-99.99,,,0.00,weatherlink.com 1.10,2013-06-03 15:20:00,
2013-06-03 08:35:00,54.1,42.0,30.09,NW,322,0.0,-999.0,64,-99.99,,,0.00,weatherlink.com 1.10,2013-06-03 15:35:00,
2013-06-03 08:50:00,55.1,42.0,30.09,WSW,248,0.0,-999.0,61,-99.99,,,0.00,weatherlink.com 1.10,2013-06-03 15:50:00,
2013-06-03 09:05:00,56.1,41.0,30.09,West,274,2.0,-999.0,58,-99.99,,,0.00,weatherlink.com 1.10,2013-06-03 16:05:00,
2013-06-03 09:20:00,56.4,41.0,30.09,SW,236,0.0,-999.0,56,-99.99,,,0.00,weatherlink.com 1.10,2013-06-03 16:20:00,
2013-06-03 09:35:00,57.6,41.0,30.09,NW,315,3.0,-999.0,54,-99.99,,,0.00,weatherlink.com 1.10,2013-06-03 16:35:00,
2013-06-03 09:50:00,57.4,42.0,30.09,NNW,347,4.0,-999.0,56,-99.99,,,0.00,weatherlink.com 1.10,2013-06-03 16:50:00,
2013-06-03 10:05:00,58.4,40.0,30.09,North,1,2.0,-999.0,51,-99.99,,,0.00,weatherlink.com 1.10,2013-06-03 17:05:00,
2013-06-03 10:20:00,58.8,40.0,30.09,WNW,290,1.0,-999.0,51,-99.99,,,0.00,weatherlink.com 1.10,2013-06-03 17:20:00,
2013-06-03 10:35:00,59.2,41.0,30.09,NE,41,0.0,-999.0,51,-99.99,,,0.00,weatherlink.com 1.10,2013-06-03 17:35:00,
2013-06-03 10:50:00,59.9,39.0,30.09,WNW,283,5.0,-999.0,47,-99.99,,,0.00,weatherlink.com 1.10,2013-06-03 17:50:00,
2013-06-03 11:05:00,60.1,39.0,30.09,ENE,57,2.0,-999.0,45,-99.99,,,0.00,weatherlink.com 1.10,2013-06-03 18:05:00,
2013-06-03 11:20:00,61.2,37.0,30.09,NW,311,5.0,-999.0,40,-99.99,,,0.00,weatherlink.com 1.10,2013-06-03 18:20:00,
2013-06-03 11:35:00,61.8,34.0,30.09,West,274,5.0,-999.0,36,-99.99,,,0.00,weatherlink.com 1.10,2013-06-03 18:35:00,
2013-06-03 11:50:00,62.2,33.0,30.09,ENE,57,3.0,-999.0,34,-99.99,,,0.00,weatherlink.com 1.10,2013-06-03 18:50:00,
2013-06-03 12:05:00,63.7,33.0,30.09,WNW,299,4.0,-999.0,32,-99.99,,,0.00,weatherlink.com 1.10,2013-06-03 19:05:00,
2013-06-03 12:20:00,63.5,35.0,30.08,NNW,329,5.0,-999.0,35,-99.99,,,0.00,weatherlink.com 1.10,2013-06-03 19:20:00,
2013-06-03 12:35:00,63.9,33.0,30.08,ESE,110,5.0,-999.0,32,-99.99,,,0.00,weatherlink.com 1.10,2013-06-03 19:35:00,
2013-06-03 12:50:00,65.1,34.0,30.08,WNW,298,0.0,-999.0,32,-99.99,,,0.00,weatherlink.com 1.10,2013-06-03 19:50:00,
2013-06-03 13:05:00,65.5,34.0,30.07,WNW,289,0.0,-999.0,31,-99.99,,,0.00,weatherlink.com 1.10,2013-06-03 20:05:00,
2013-06-03 13:20:00,65.9,36.0,30.07,WNW,294,0.0,-999.0,33,-99.99,,,0.00,weatherlink.com 1.10,2013-06-03 20:20:00,
2013-06-03 13:35:00,66.3,38.0,30.07,ESE,106,0.0,-999.0,36,-99.99,,,0.00,weatherlink.com 1.10,2013-06-03 20:35:00,
2013-06-03 13:50:00,66.8,36.0,30.07,WSW,245,2.0,-999.0,32,-99.99,,,0.00,weatherlink.com 1.10,2013-06-03 20:50:00,
2013-06-03 14:05:00,67.7,36.0,30.07,NNW,338,9.0,-999.0,31,-99.99,,,0.00,weatherlink.com 1.10,2013-06-03 21:05:00,
2013-06-03 14:20:00,67.8,33.0,30.07,NW,307,10.0,-999.0,28,-99.99,,,0.00,weatherlink.com 1.10,2013-06-03 21:20:00,
2013-06-03 14:35:00,68.3,33.0,30.07,WNW,296,10.0,-999.0,27,-99.99,,,0.00,weatherlink.com 1.10,2013-06-03 21:35:00,
2013-06-03 14:50:00,68.3,33.0,30.07,West,281,8.0,-999.0,27,-99.99,,,0.00,weatherlink.com 1.10,2013-06-03 21:50:00,
2013-06-03 15:05:00,68.9,33.0,30.07,WNW,294,7.0,-999.0,27,-99.99,,,0.00,weatherlink.com 1.10,2013-06-03 22:05:00,
2013-06-03 15:20:00,68.6,27.0,30.06,WNW,294,7.0,-999.0,21,-99.99,,,0.00,weatherlink.com 1.10,2013-06-03 22:20:00,
2013-06-03 15:35:00,68.9,25.0,30.06,NNW,337,5.0,-999.0,19,-99.99,,,0.00,weatherlink.com 1.10,2013-06-03 22:35:00,
2013-06-03 15:50:00,69.2,25.0,30.06,NNW,342,5.0,-999.0,19,-99.99,,,0.00,weatherlink.com 1.10,2013-06-03 22:50:00,
2013-06-03 16:05:00,69.9,24.0,30.05,NNW,333,5.0,-999.0,18,-99.99,,,0.00,weatherlink.com 1.10,2013-06-03 23:05:00,
2013-06-03 16:20:00,70.1,26.0,30.05,West,281,3.0,-999.0,19,-99.99,,,0.00,weatherlink.com 1.10,2013-06-03 23:20:00,
2013-06-03 16:35:00,70.4,26.0,30.05,West,268,3.0,-999.0,19,-99.99,,,0.00,weatherlink.com 1.10,2013-06-03 23:35:00,
2013-06-03 16:50:00,70.6,29.0,30.05,NNW,342,7.0,-999.0,21,-99.99,,,0.00,weatherlink.com 1.10,2013-06-03 23:50:00,
2013-06-03 17:05:00,70.1,28.0,30.04,NNE,33,4.0,-999.0,21,-99.99,,,0.00,weatherlink.com 1.10,2013-06-04 00:05:00,
2013-06-03 17:20:00,70.4,31.0,30.04,NNW,344,6.0,-999.0,23,-99.99,,,0.00,weatherlink.com 1.10,2013-06-04 00:20:00,
2013-06-03 17:35:00,70.7,32.0,30.04,NNW,339,6.0,-999.0,24,-99.99,,,0.00,weatherlink.com 1.10,2013-06-04 00:35:00,
2013-06-03 17:50:00,70.6,28.0,30.04,NNE,23,6.0,-999.0,20,-99.99,,,0.00,weatherlink.com 1.10,2013-06-04 00:50:00,
2013-06-03 18:05:00,70.3,28.0,30.04,NNW,339,6.0,-999.0,21,-99.99,,,0.00,weatherlink.com 1.10,2013-06-04 01:05:00,
2013-06-03 18:20:00,69.8,28.0,30.04,NNE,29,10.0,-999.0,21,-99.99,,,0.00,weatherlink.com 1.10,2013-06-04 01:20:00,
2013-06-03 18:35:00,69.9,30.0,30.04,NNE,13,7.0,-999.0,23,-99.99,,,0.00,weatherlink.com 1.10,2013-06-04 01:35:00,
2013-06-03 18:50:00,69.4,30.0,30.03,North,3,7.0,-999.0,23,-99.99,,,0.00,weatherlink.com 1.10,2013-06-04 01:50:00,
2013-06-03 19:05:00,69.0,34.0,30.04,North,359,5.0,-999.0,27,-99.99,,,0.00,weatherlink.com 1.10,2013-06-04 02:05:00,
2013-06-03 19:20:00,68.9,35.0,30.04,North,349,5.0,-999.0,29,-99.99,,,0.00,weatherlink.com 1.10,2013-06-04 02:20:00,
2013-06-03 19:35:00,68.3,34.0,30.04,NNW,337,7.0,-999.0,28,-99.99,,,0.00,weatherlink.com 1.10,2013-06-04 02:35:00,
2013-06-03 19:50:00,67.3,36.0,30.05,NNW,336,6.0,-999.0,31,-99.99,,,0.00,weatherlink.com 1.10,2013-06-04 02:50:00,
2013-06-03 20:05:00,66.2,36.0,30.05,NNW,339,8.0,-999.0,33,-99.99,,,0.00,weatherlink.com 1.10,2013-06-04 03:05:00,
2013-06-03 20:20:00,64.7,34.0,30.05,NW,326,11.0,-999.0,32,-99.99,,,0.00,weatherlink.com 1.10,2013-06-04 03:20:00,
2013-06-03 20:35:00,63.0,33.0,30.06,NW,323,9.0,-999.0,32,-99.99,,,0.00,weatherlink.com 1.10,2013-06-04 03:35:00,
2013-06-03 20:50:00,61.3,33.0,30.07,NNW,337,4.0,-999.0,34,-99.99,,,0.00,weatherlink.com 1.10,2013-06-04 03:50:00,
2013-06-03 21:05:00,59.7,33.0,30.07,NNW,328,5.0,-999.0,37,-99.99,,,0.00,weatherlink.com 1.10,2013-06-04 04:05:00,
2013-06-03 21:20:00,58.3,34.0,30.07,North,8,4.0,-999.0,41,-99.99,,,0.00,weatherlink.com 1.10,2013-06-04 04:20:00,
2013-06-03 21:35:00,56.4,35.0,30.08,North,352,1.0,-999.0,44,-99.99,,,0.00,weatherlink.com 1.10,2013-06-04 04:35:00,
2013-06-03 21:50:00,55.8,33.0,30.08,NNE,16,4.0,-999.0,42,-99.99,,,0.00,weatherlink.com 1.10,2013-06-04 04:50:00,
2013-06-03 22:05:00,55.7,32.0,30.09,NNW,345,1.0,-999.0,41,-99.99,,,0.00,weatherlink.com 1.10,2013-06-04 05:05:00,
2013-06-03 22:20:00,54.2,34.0,30.09,SE,139,3.0,-999.0,46,-99.99,,,0.00,weatherlink.com 1.10,2013-06-04 05:20:00,
2013-06-03 22:35:00,52.1,33.0,30.09,South,169,2.0,-999.0,49,-99.99,,,0.00,weatherlink.com 1.10,2013-06-04 05:35:00,
2013-06-03 22:50:00,50.2,35.0,30.09,East,94,0.0,-999.0,57,-99.99,,,0.00,weatherlink.com 1.10,2013-06-04 05:50:00,
2013-06-03 23:05:00,50.5,33.0,30.09,ESE,106,0.0,-999.0,52,-99.99,,,0.00,weatherlink.com 1.10,2013-06-04 06:05:00,
2013-06-03 23:20:00,48.1,32.0,30.09,SSW,207,2.0,-999.0,55,-99.99,,,0.00,weatherlink.com 1.10,2013-06-04 06:20:00,
2013-06-03 23:35:00,47.3,38.0,30.09,ESE,111,3.0,-999.0,69,-99.99,,,0.00,weatherlink.com 1.10,2013-06-04 06:35:00,
2013-06-03 23:50:00,45.2,34.0,30.09,ESE,118,1.0,-999.0,64,-99.99,,,0.00,weatherlink.com 1.10,2013-06-04 06:50:00,